Time;durP1;ratioP1;P1;durP2;ratioP2;P2;SDS_P1;SDS_P2;PMS_P1;PMS_P2;Temp;Humidity;BMP_temperature;BMP_pressure;BME280_temperature;BME280_humidity;BME280_pressure;Samples;Min_cycle;Max_cycle;Signal;HPM_P1;HPM_P2
2023/03/18 00:01:36;;;;;;;21.40;12.43;;;13.40;99.90;;;;;;4938065;29;20342;-74
2023/03/18 00:04:03;;;;;;;19.33;11.88;;;13.40;99.90;;;;;;4938713;29;20696;-75
2023/03/18 00:06:29;;;;;;;20.80;12.98;;;13.40;99.90;;;;;;4938091;29;20179;-75
2023/03/18 00:08:56;;;;;;;20.30;12.10;;;13.40;99.90;;;;;;4952773;28;20183;-75
2023/03/18 00:11:21;;;;;;;21.73;12.65;;;13.40;99.90;;;;;;4938379;29;20328;-75
2023/03/18 00:13:48;;;;;;;20.15;12.40;;;13.40;99.90;;;;;;4938815;29;20599;-74
2023/03/18 00:16:14;;;;;;;26.25;12.27;;;13.40;99.90;;;;;;4938309;29;20215;-77
2023/03/18 00:18:41;;;;;;;20.23;12.55;;;13.40;99.90;;;;;;4938034;29;20265;-73
2023/03/18 00:21:08;;;;;;;20.25;12.27;;;13.40;99.90;;;;;;4936615;29;20183;-74
2023/03/18 00:23:35;;;;;;;22.92;12.75;;;13.40;99.90;;;;;;4938119;29;20238;-73
2023/03/18 00:26:01;;;;;;;18.15;12.38;;;13.40;99.90;;;;;;4952724;28;20191;-76
2023/03/18 00:28:30;;;;;;;21.50;12.25;;;13.40;99.90;;;;;;4920786;29;20623;-74
2023/03/18 00:31:02;;;;;;;17.38;12.10;;;13.40;99.90;;;;;;4937091;29;20179;-75
2023/03/18 00:33:27;;;;;;;18.60;11.88;;;13.40;99.90;;;;;;4952632;29;20176;-75
2023/03/18 00:35:53;;;;;;;20.50;11.70;;;13.40;99.90;;;;;;4938266;29;20207;-73
2023/03/18 00:38:19;;;;;;;19.20;10.98;;;13.30;99.90;;;;;;4952634;29;20183;-75
2023/03/18 00:40:52;;;;;;;22.42;11.70;;;13.40;99.90;;;;;;4937844;29;20189;-74
2023/03/18 00:43:21;;;;;;;17.63;11.45;;;13.40;99.90;;;;;;4921800;29;20184;-74
2023/03/18 00:45:49;;;;;;;20.25;12.13;;;13.40;99.90;;;;;;4937461;29;20231;-77
2023/03/18 00:48:17;;;;;;;19.83;11.68;;;13.30;99.90;;;;;;4937835;29;20184;-74
2023/03/18 00:50:43;;;;;;;17.70;11.57;;;13.30;99.90;;;;;;4951938;29;20188;-73
2023/03/18 00:53:10;;;;;;;18.70;11.85;;;13.30;99.90;;;;;;4952846;29;20266;-73
2023/03/18 00:55:36;;;;;;;18.92;11.75;;;13.30;99.90;;;;;;4936416;29;20234;-74
2023/03/18 00:58:02;;;;;;;21.63;11.85;;;13.30;99.90;;;;;;4951907;29;20555;-75
2023/03/18 01:00:28;;;;;;;18.45;11.55;;;13.20;99.90;;;;;;4935846;29;20615;-73
2023/03/18 01:02:55;;;;;;;19.77;12.32;;;13.30;99.90;;;;;;4936823;29;20215;-74
2023/03/18 01:05:21;;;;;;;25.00;12.50;;;13.20;99.90;;;;;;4937788;29;20620;-75
2023/03/18 01:07:48;;;;;;;19.42;12.93;;;13.20;99.90;;;;;;4952143;28;20624;-74
2023/03/18 01:10:14;;;;;;;23.70;12.82;;;13.20;99.90;;;;;;4937193;29;20214;-74
2023/03/18 01:12:42;;;;;;;21.25;13.23;;;13.20;99.90;;;;;;4936913;29;20187;-76
2023/03/18 01:15:14;;;;;;;19.23;13.88;;;13.20;99.90;;;;;;4936772;29;20217;-74
2023/03/18 01:17:40;;;;;;;25.98;13.23;;;13.10;99.90;;;;;;4937494;29;20263;-73
2023/03/18 01:20:06;;;;;;;21.30;13.38;;;13.10;99.90;;;;;;4935487;29;20262;-73
2023/03/18 01:22:31;;;;;;;22.13;14.10;;;13.10;99.90;;;;;;4936564;29;20187;-77
2023/03/18 01:24:57;;;;;;;24.70;14.02;;;13.00;99.90;;;;;;4951307;28;20183;-74
2023/03/18 01:27:30;;;;;;;23.90;14.85;;;13.00;99.90;;;;;;4951846;29;20187;-75
2023/03/18 01:29:58;;;;;;;23.42;14.98;;;13.00;99.90;;;;;;4936429;29;20198;-75
2023/03/18 01:32:25;;;;;;;26.23;15.77;;;13.00;99.90;;;;;;4935411;29;20187;-73
2023/03/18 01:34:51;;;;;;;24.45;16.63;;;13.00;99.90;;;;;;4936679;29;20246;-74
2023/03/18 01:37:18;;;;;;;28.08;17.10;;;13.00;99.90;;;;;;4936656;28;20266;-75
2023/03/18 01:39:47;;;;;;;26.38;17.88;;;12.90;99.90;;;;;;4935527;29;20627;-74
2023/03/18 01:42:20;;;;;;;30.80;18.13;;;12.90;99.90;;;;;;4936140;29;20202;-74
2023/03/18 01:44:47;;;;;;;31.08;19.25;;;12.90;99.90;;;;;;4935117;29;20187;-75
2023/03/18 01:47:16;;;;;;;30.55;18.33;;;12.90;99.90;;;;;;4951639;28;20274;-73
2023/03/18 01:49:49;;;;;;;28.35;18.85;;;12.80;99.90;;;;;;4921008;29;20579;-74
2023/03/18 01:52:25;;;;;;;34.50;19.75;;;12.80;99.90;;;;;;4935212;28;20175;-74
2023/03/18 01:54:57;;;;;;;30.27;21.17;;;12.80;99.90;;;;;;4951024;28;20217;-76
2023/03/18 01:57:23;;;;;;;32.00;21.17;;;12.80;99.90;;;;;;4935435;28;20259;-74
2023/03/18 01:59:52;;;;;;;31.50;21.52;;;12.70;99.90;;;;;;4951106;28;20183;-77
2023/03/18 02:02:19;;;;;;;31.15;20.98;;;12.70;99.90;;;;;;4951262;29;20231;-73
2023/03/18 02:04:51;;;;;;;30.45;20.40;;;12.70;99.90;;;;;;4935095;29;20206;-73
2023/03/18 02:07:26;;;;;;;31.73;21.35;;;12.70;99.90;;;;;;4951028;29;20183;-73
2023/03/18 02:09:57;;;;;;;39.47;22.00;;;12.70;99.90;;;;;;4951195;28;20271;-74
2023/03/18 02:12:30;;;;;;;36.97;22.65;;;12.60;99.90;;;;;;4935087;29;20175;-73
2023/03/18 02:15:00;;;;;;;35.75;23.15;;;12.60;99.90;;;;;;4936878;29;20253;-73
2023/03/18 02:17:30;;;;;;;36.90;24.48;;;12.50;99.90;;;;;;4950734;28;20179;-74
2023/03/18 02:20:02;;;;;;;37.35;25.30;;;12.50;99.90;;;;;;4950808;29;20187;-74
2023/03/18 02:22:33;;;;;;;38.67;25.38;;;12.50;99.90;;;;;;4934877;29;20249;-73
2023/03/18 02:25:20;;;;;;;40.35;26.38;;;12.50;99.90;;;;;;4951019;28;20219;-76
2023/03/18 02:27:53;;;;;;;46.55;27.75;;;12.50;99.90;;;;;;4951475;29;20167;-74
2023/03/18 02:30:27;;;;;;;36.15;27.10;;;12.40;99.90;;;;;;4936104;29;20195;-74
2023/03/18 02:32:56;;;;;;;44.33;28.15;;;12.40;99.90;;;;;;4934487;29;20568;-76
2023/03/18 02:35:22;;;;;;;38.58;27.23;;;12.40;99.90;;;;;;4950610;28;20207;-76
2023/03/18 02:37:50;;;;;;;41.80;27.85;;;12.40;99.90;;;;;;4934588;29;20598;-74
2023/03/18 02:40:24;;;;;;;42.25;28.65;;;12.40;99.90;;;;;;4935079;29;20520;-74
2023/03/18 02:42:51;;;;;;;42.83;28.23;;;12.40;99.90;;;;;;4950949;28;20254;-74
2023/03/18 02:45:37;;;;;;;43.25;29.75;;;12.30;99.90;;;;;;4935114;29;20556;-74
2023/03/18 02:48:14;;;;;;;42.05;29.08;;;12.30;99.90;;;;;;4936475;29;20164;-74
2023/03/18 02:50:39;;;;;;;40.90;29.85;;;12.30;99.90;;;;;;4950830;29;20210;-74
2023/03/18 02:53:05;;;;;;;44.42;30.80;;;12.30;99.90;;;;;;4950740;28;20199;-74
2023/03/18 02:55:31;;;;;;;43.35;29.80;;;12.30;99.90;;;;;;4918525;29;20568;-74
2023/03/18 02:57:57;;;;;;;41.08;29.00;;;12.20;99.90;;;;;;4918437;29;20521;-75
2023/03/18 03:00:23;;;;;;;44.60;29.50;;;12.20;99.90;;;;;;4950039;29;20695;-74
2023/03/18 03:02:49;;;;;;;48.33;32.15;;;12.20;99.90;;;;;;4934097;29;20182;-74
2023/03/18 03:05:15;;;;;;;48.67;31.50;;;12.20;99.90;;;;;;4950100;29;20183;-75
2023/03/18 03:07:41;;;;;;;43.10;30.83;;;12.20;99.90;;;;;;4936008;29;20497;-74
2023/03/18 03:10:09;;;;;;;45.75;31.05;;;12.10;99.90;;;;;;4918238;29;20183;-74
2023/03/18 03:12:37;;;;;;;47.38;32.05;;;12.10;99.90;;;;;;4934237;29;20192;-74
2023/03/18 03:15:06;;;;;;;48.53;32.13;;;12.10;99.90;;;;;;4935298;29;20351;-75
2023/03/18 03:17:34;;;;;;;43.38;32.38;;;12.10;99.90;;;;;;4933799;29;20183;-75
2023/03/18 03:20:00;;;;;;;54.85;33.13;;;12.10;99.90;;;;;;4934191;29;20191;-77
2023/03/18 03:22:27;;;;;;;46.65;33.58;;;12.00;99.90;;;;;;4936145;29;20251;-75
2023/03/18 03:24:53;;;;;;;48.83;32.97;;;12.00;99.90;;;;;;4949637;28;20195;-75
2023/03/18 03:27:18;;;;;;;53.45;33.70;;;12.00;99.90;;;;;;4935453;29;20691;-75
2023/03/18 03:29:44;;;;;;;54.40;34.92;;;12.00;99.90;;;;;;4934627;29;20275;-75
2023/03/18 03:32:12;;;;;;;52.78;34.58;;;12.00;99.90;;;;;;4950610;28;20614;-75
2023/03/18 03:34:38;;;;;;;50.80;34.63;;;12.00;99.90;;;;;;4949566;28;20219;-77
2023/03/18 03:37:04;;;;;;;50.72;33.88;;;11.90;99.90;;;;;;4934306;29;20191;-75
2023/03/18 03:39:30;;;;;;;47.25;33.47;;;11.90;99.90;;;;;;4934997;29;20710;-75
2023/03/18 03:41:56;;;;;;;52.17;35.05;;;11.90;99.90;;;;;;4934195;29;20191;-77
2023/03/18 03:44:23;;;;;;;51.55;33.40;;;11.90;99.90;;;;;;4920943;29;20235;-75
2023/03/18 03:46:48;;;;;;;49.40;33.80;;;11.90;99.90;;;;;;4953432;29;20183;-75
2023/03/18 03:49:14;;;;;;;47.72;33.25;;;11.90;99.90;;;;;;4938434;29;20186;-75
2023/03/18 03:51:40;;;;;;;51.83;35.75;;;11.90;99.90;;;;;;4938495;29;20597;-75
2023/03/18 03:54:06;;;;;;;49.85;34.70;;;11.90;99.90;;;;;;4953287;28;20187;-76
2023/03/18 03:56:32;;;;;;;49.70;34.28;;;11.90;99.90;;;;;;4937200;29;20278;-74
2023/03/18 03:58:59;;;;;;;50.97;34.80;;;11.80;99.90;;;;;;4938209;29;20251;-77
2023/03/18 04:01:35;;;;;;;53.17;33.63;;;11.80;99.90;;;;;;4936746;29;20239;-76
2023/03/18 04:04:01;;;;;;;55.85;34.35;;;11.80;99.90;;;;;;4953307;28;20192;-77
2023/03/18 04:06:29;;;;;;;52.17;34.42;;;11.80;99.90;;;;;;4937042;29;20203;-75
2023/03/18 04:08:59;;;;;;;49.67;33.75;;;11.80;99.90;;;;;;4937630;28;20619;-75
2023/03/18 04:11:25;;;;;;;49.50;32.67;;;11.80;99.90;;;;;;4953346;28;20211;-75
2023/03/18 04:13:52;;;;;;;55.78;35.15;;;11.80;99.90;;;;;;4936937;29;20210;-75
2023/03/18 04:16:17;;;;;;;52.65;33.88;;;11.70;99.90;;;;;;4953334;29;20667;-76
2023/03/18 04:18:43;;;;;;;51.95;33.50;;;11.70;99.90;;;;;;4921091;29;20262;-75
2023/03/18 04:21:10;;;;;;;50.95;33.50;;;11.70;99.90;;;;;;4936655;29;20180;-75
2023/03/18 04:23:44;;;;;;;51.08;34.25;;;11.70;99.90;;;;;;4937423;28;20191;-75
2023/03/18 04:26:11;;;;;;;49.38;32.38;;;11.70;99.90;;;;;;4952500;29;20787;-75
2023/03/18 04:28:37;;;;;;;55.20;34.15;;;11.70;99.90;;;;;;4937858;29;20619;-75
2023/03/18 04:31:06;;;;;;;46.65;31.65;;;11.60;99.90;;;;;;4952517;28;20183;-78
2023/03/18 04:33:32;;;;;;;44.70;33.72;;;11.60;99.90;;;;;;4937453;29;20209;-75
2023/03/18 04:35:58;;;;;;;51.25;33.22;;;11.60;99.90;;;;;;4937253;29;20630;-75
2023/03/18 04:38:27;;;;;;;47.03;31.90;;;11.60;99.90;;;;;;4921018;29;20616;-75
2023/03/18 04:40:53;;;;;;;47.97;32.17;;;11.50;99.90;;;;;;4937722;29;20199;-76
2023/03/18 04:43:19;;;;;;;48.88;31.75;;;11.50;99.90;;;;;;4936554;29;20541;-75
2023/03/18 04:45:48;;;;;;;51.72;32.83;;;11.50;99.90;;;;;;4952288;29;20246;-77
2023/03/18 04:48:15;;;;;;;48.22;34.05;;;11.50;99.90;;;;;;4953119;28;20597;-75
2023/03/18 04:50:44;;;;;;;46.60;32.25;;;11.40;99.90;;;;;;4952049;28;20188;-74
2023/03/18 04:53:15;;;;;;;46.40;31.15;;;11.40;99.90;;;;;;4936525;29;20297;-74
2023/03/18 04:55:42;;;;;;;41.65;30.35;;;11.40;99.90;;;;;;4935310;29;20211;-75
2023/03/18 04:58:11;;;;;;;44.10;29.75;;;11.40;99.90;;;;;;4936075;29;20643;-75
2023/03/18 05:00:42;;;;;;;45.17;30.80;;;11.40;99.90;;;;;;4920598;29;20243;-75
2023/03/18 05:03:22;;;;;;;47.58;29.80;;;11.40;99.90;;;;;;4937354;29;20191;-75
2023/03/18 05:05:49;;;;;;;45.50;29.92;;;11.40;99.90;;;;;;4935910;29;20192;-75
2023/03/18 05:08:19;;;;;;;43.80;28.85;;;11.30;99.90;;;;;;4952212;29;20621;-75
2023/03/18 05:10:46;;;;;;;45.45;28.90;;;11.30;99.90;;;;;;4951989;29;20238;-75
2023/03/18 05:13:12;;;;;;;44.60;29.23;;;11.30;99.90;;;;;;4936019;29;20192;-75
2023/03/18 05:15:38;;;;;;;46.22;28.40;;;11.30;99.90;;;;;;4936960;29;20211;-78
2023/03/18 05:18:04;;;;;;;44.95;27.75;;;11.30;99.90;;;;;;4952409;29;20282;-76
2023/03/18 05:20:31;;;;;;;42.75;27.55;;;11.30;99.90;;;;;;4935815;29;20195;-79
2023/03/18 05:22:58;;;;;;;42.72;26.92;;;11.30;99.90;;;;;;4951514;29;20697;-76
2023/03/18 05:25:32;;;;;;;39.58;26.88;;;11.30;99.90;;;;;;4952301;29;20500;-74
2023/03/18 05:27:58;;;;;;;39.50;26.38;;;11.30;99.90;;;;;;4952161;29;20190;-74
2023/03/18 05:30:33;;;;;;;41.60;26.73;;;11.30;99.90;;;;;;4921120;29;20238;-74
2023/03/18 05:32:59;;;;;;;43.05;27.17;;;11.30;99.90;;;;;;4951244;29;20627;-75
2023/03/18 05:35:41;;;;;;;38.33;26.05;;;11.30;99.90;;;;;;4935988;29;20207;-74
2023/03/18 05:38:07;;;;;;;43.30;27.55;;;11.30;99.90;;;;;;4935388;29;20191;-74
2023/03/18 05:40:33;;;;;;;43.30;27.30;;;11.30;99.90;;;;;;4951856;28;20653;-74
2023/03/18 05:43:06;;;;;;;41.53;27.15;;;11.30;99.90;;;;;;4935450;29;20183;-74
2023/03/18 05:45:38;;;;;;;43.28;27.33;;;11.30;99.90;;;;;;4935276;29;20190;-74
2023/03/18 05:48:05;;;;;;;41.53;27.10;;;11.30;99.90;;;;;;4951093;29;20186;-74
2023/03/18 05:50:41;;;;;;;40.80;27.15;;;11.30;99.90;;;;;;4951249;28;20622;-74
2023/03/18 05:53:11;;;;;;;43.28;27.70;;;11.30;99.90;;;;;;4950795;28;20522;-74
2023/03/18 05:55:41;;;;;;;44.83;28.67;;;11.30;99.90;;;;;;4951092;29;20662;-74
2023/03/18 05:58:08;;;;;;;51.97;28.85;;;11.30;99.90;;;;;;4935502;29;20199;-74
2023/03/18 06:00:36;;;;;;;50.03;30.65;;;11.30;99.90;;;;;;4950608;28;20227;-74
2023/03/18 06:03:02;;;;;;;46.50;29.33;;;11.30;99.90;;;;;;4935067;29;20526;-74
2023/03/18 06:05:29;;;;;;;54.08;29.83;;;11.30;99.90;;;;;;4934506;29;20187;-74
2023/03/18 06:07:56;;;;;;;56.75;31.02;;;11.30;99.90;;;;;;4951054;29;20234;-74
2023/03/18 06:10:23;;;;;;;52.50;29.88;;;11.30;99.90;;;;;;4936233;29;20191;-75
2023/03/18 06:12:50;;;;;;;54.38;31.38;;;11.30;99.90;;;;;;4951085;28;20611;-74
2023/03/18 06:15:17;;;;;;;54.35;30.98;;;11.30;99.90;;;;;;4950996;28;20270;-74
2023/03/18 06:17:44;;;;;;;57.55;32.38;;;11.20;99.90;;;;;;4934780;29;20239;-74
2023/03/18 06:20:13;;;;;;;57.65;31.83;;;11.20;99.90;;;;;;4918969;29;20193;-74
2023/03/18 06:22:39;;;;;;;54.10;31.67;;;11.20;99.90;;;;;;4934444;29;20473;-74
2023/03/18 06:25:07;;;;;;;56.65;33.58;;;11.20;99.90;;;;;;4950417;29;20258;-73
2023/03/18 06:27:36;;;;;;;61.58;34.15;;;11.20;99.90;;;;;;4934904;29;20235;-74
2023/03/18 06:30:04;;;;;;;60.30;33.92;;;11.20;99.90;;;;;;4950607;28;20190;-73
2023/03/18 06:32:32;;;;;;;55.00;32.55;;;11.20;99.90;;;;;;4934936;29;20215;-73
2023/03/18 06:34:59;;;;;;;55.50;33.67;;;11.20;99.90;;;;;;4934453;29;20230;-74
2023/03/18 06:37:27;;;;;;;59.13;33.35;;;11.20;99.90;;;;;;4935128;28;20195;-73
2023/03/18 06:39:53;;;;;;;57.60;33.88;;;11.30;99.90;;;;;;4935805;29;20179;-74
2023/03/18 06:42:19;;;;;;;54.63;33.72;;;11.30;99.90;;;;;;4950470;29;20180;-73
2023/03/18 06:44:54;;;;;;;59.67;33.78;;;11.30;99.90;;;;;;4935804;29;20203;-75
2023/03/18 06:47:26;;;;;;;56.58;33.28;;;11.30;99.90;;;;;;4950727;28;20631;-74
2023/03/18 06:49:55;;;;;;;59.22;33.85;;;11.30;99.90;;;;;;4951511;29;20187;-74
2023/03/18 06:52:28;;;;;;;57.88;34.72;;;11.30;99.90;;;;;;4935115;29;20183;-74
2023/03/18 06:55:01;;;;;;;58.58;34.45;;;11.30;99.90;;;;;;4949309;28;20674;-73
2023/03/18 06:57:27;;;;;;;52.25;32.92;;;11.30;99.90;;;;;;4935688;29;20187;-79
2023/03/18 06:59:54;;;;;;;58.78;34.97;;;11.30;99.90;;;;;;4934434;29;20203;-73
2023/03/18 07:02:22;;;;;;;58.35;34.10;;;11.30;99.90;;;;;;4935523;29;20251;-75
2023/03/18 07:04:50;;;;;;;54.88;34.35;;;11.40;99.90;;;;;;4934284;29;20261;-76
2023/03/18 07:07:16;;;;;;;50.58;33.65;;;11.40;99.90;;;;;;4935595;29;20175;-77
2023/03/18 07:09:43;;;;;;;52.03;33.70;;;11.50;99.90;;;;;;4935180;29;20208;-75
2023/03/18 07:12:12;;;;;;;49.00;31.58;;;11.50;99.90;;;;;;4950468;29;20275;-74
2023/03/18 07:14:39;;;;;;;52.17;33.58;;;11.50;99.90;;;;;;4950239;28;20183;-74
2023/03/18 07:17:05;;;;;;;53.85;32.38;;;11.60;99.90;;;;;;4919101;29;20214;-74
2023/03/18 07:19:32;;;;;;;56.05;34.10;;;11.70;99.90;;;;;;4937396;29;20631;-74
2023/03/18 07:21:58;;;;;;;52.17;31.55;;;11.80;99.90;;;;;;4954577;28;20200;-74
2023/03/18 07:24:25;;;;;;;50.47;31.27;;;11.90;99.90;;;;;;4937875;29;20198;-75
2023/03/18 07:26:51;;;;;;;50.22;30.98;;;12.00;99.90;;;;;;4953737;28;20187;-75
2023/03/18 07:29:18;;;;;;;46.20;30.73;;;12.10;99.90;;;;;;4937663;29;20195;-74
2023/03/18 07:31:44;;;;;;;51.08;32.00;;;12.20;99.90;;;;;;4953630;29;20207;-74
2023/03/18 07:34:12;;;;;;;45.38;30.42;;;12.30;99.90;;;;;;4937975;29;20179;-75
2023/03/18 07:36:38;;;;;;;49.15;30.00;;;12.30;99.90;;;;;;4938869;29;20204;-75
2023/03/18 07:39:05;;;;;;;48.97;31.08;;;12.40;99.90;;;;;;4938531;29;20179;-75
2023/03/18 07:41:31;;;;;;;43.30;29.48;;;12.40;99.90;;;;;;4938983;29;20184;-74
2023/03/18 07:43:57;;;;;;;48.28;30.92;;;12.50;99.90;;;;;;4938744;29;20195;-81
2023/03/18 07:46:23;;;;;;;49.05;31.55;;;12.60;99.90;;;;;;4938826;29;20772;-75
2023/03/18 07:48:49;;;;;;;50.20;30.98;;;12.60;99.90;;;;;;4938605;29;20655;-75
2023/03/18 07:51:15;;;;;;;46.78;29.77;;;12.70;99.90;;;;;;4937167;29;20223;-75
2023/03/18 07:53:42;;;;;;;48.00;31.42;;;12.70;99.90;;;;;;4939341;29;20209;-76
2023/03/18 07:56:08;;;;;;;48.60;31.23;;;12.60;99.90;;;;;;4937893;29;20225;-75
2023/03/18 07:58:35;;;;;;;48.90;31.30;;;12.70;99.90;;;;;;4938416;29;20191;-75
2023/03/18 08:01:01;;;;;;;45.92;31.00;;;12.70;99.90;;;;;;4937182;29;20235;-73
2023/03/18 08:03:27;;;;;;;47.63;32.13;;;12.70;99.90;;;;;;4938148;29;20312;-74
2023/03/18 08:05:53;;;;;;;45.17;31.35;;;12.70;99.90;;;;;;4938517;29;20235;-73
2023/03/18 08:08:20;;;;;;;49.65;32.35;;;12.70;99.90;;;;;;4938066;29;20172;-74
2023/03/18 08:10:46;;;;;;;49.42;31.38;;;12.70;99.90;;;;;;4937426;29;20195;-74
2023/03/18 08:13:13;;;;;;;50.50;32.00;;;12.70;99.90;;;;;;4938079;29;20227;-74
2023/03/18 08:15:39;;;;;;;47.78;31.95;;;12.70;99.90;;;;;;4952622;29;20207;-74
2023/03/18 08:18:05;;;;;;;45.50;29.98;;;12.70;99.90;;;;;;4937410;29;20187;-74
2023/03/18 08:20:30;;;;;;;47.85;31.63;;;12.70;99.90;;;;;;4952558;29;20673;-74
2023/03/18 08:22:56;;;;;;;46.65;31.35;;;12.70;99.90;;;;;;4938348;29;20180;-74
2023/03/18 08:25:22;;;;;;;45.40;31.08;;;12.70;99.90;;;;;;4937857;29;20195;-74
2023/03/18 08:27:49;;;;;;;48.15;31.00;;;12.70;99.90;;;;;;4937290;29;20536;-73
2023/03/18 08:30:15;;;;;;;47.83;30.63;;;12.70;99.90;;;;;;4937808;29;20714;-74
2023/03/18 08:32:42;;;;;;;43.97;29.85;;;12.70;99.90;;;;;;4937563;29;20209;-74
2023/03/18 08:35:08;;;;;;;46.80;31.40;;;12.70;99.90;;;;;;4937580;29;20359;-74
2023/03/18 08:37:35;;;;;;;47.42;30.38;;;12.70;99.90;;;;;;4952501;29;20187;-74
2023/03/18 08:40:01;;;;;;;50.47;30.25;;;12.70;99.90;;;;;;4937757;29;20188;-73
2023/03/18 08:42:27;;;;;;;43.78;30.65;;;12.80;99.90;;;;;;4936380;29;20191;-73
2023/03/18 08:44:53;;;;;;;43.80;29.83;;;12.80;99.90;;;;;;4936717;29;20187;-76
2023/03/18 08:47:20;;;;;;;42.30;29.05;;;12.80;99.90;;;;;;4937336;29;20179;-75
2023/03/18 08:49:45;;;;;;;44.92;29.17;;;12.80;99.90;;;;;;4937762;29;20211;-77
2023/03/18 08:52:11;;;;;;;46.97;30.17;;;12.80;99.90;;;;;;4936390;29;20235;-75
2023/03/18 08:54:37;;;;;;;43.25;29.23;;;12.80;99.90;;;;;;4937520;29;20672;-74
2023/03/18 08:57:03;;;;;;;44.42;29.73;;;12.80;99.90;;;;;;4937532;29;20179;-75
2023/03/18 08:59:29;;;;;;;41.38;30.30;;;12.80;99.90;;;;;;4937032;29;20538;-74
2023/03/18 09:01:55;;;;;;;44.13;29.83;;;12.80;99.90;;;;;;4938204;29;20218;-76
2023/03/18 09:04:25;;;;;;;47.10;30.13;;;12.80;99.90;;;;;;4936937;28;20192;-77
2023/03/18 09:07:04;;;;;;;50.03;30.92;;;12.80;99.90;;;;;;4939458;28;20294;-81
2023/03/18 09:09:30;;;;;;;43.05;29.83;;;12.80;99.90;;;;;;4936367;29;20230;-79
2023/03/18 09:11:55;;;;;;;48.80;31.40;;;12.80;99.90;;;;;;4936341;29;20175;-76
2023/03/18 09:14:22;;;;;;;44.60;30.30;;;12.80;99.90;;;;;;4936105;29;20202;-73
2023/03/18 09:16:48;;;;;;;42.90;29.65;;;12.80;99.90;;;;;;4919911;29;20601;-74
2023/03/18 09:19:14;;;;;;;43.80;30.75;;;12.80;99.90;;;;;;4951536;29;20188;-77
2023/03/18 09:21:39;;;;;;;42.63;31.10;;;12.80;99.90;;;;;;4936872;29;20271;-75
2023/03/18 09:24:05;;;;;;;47.55;30.70;;;12.90;99.90;;;;;;4937668;29;20191;-74
2023/03/18 09:26:31;;;;;;;46.03;30.85;;;12.90;99.90;;;;;;4937127;29;20187;-75
2023/03/18 09:28:57;;;;;;;43.42;31.00;;;12.90;99.90;;;;;;4936774;29;20184;-80
2023/03/18 09:31:23;;;;;;;44.67;31.33;;;13.00;99.90;;;;;;4935790;29;20262;-76
2023/03/18 09:33:49;;;;;;;47.65;30.23;;;13.00;99.90;;;;;;4936499;29;20187;-73
2023/03/18 09:36:15;;;;;;;43.45;30.67;;;13.10;99.90;;;;;;4936416;29;20225;-73
2023/03/18 09:38:41;;;;;;;46.72;31.17;;;13.10;99.90;;;;;;4936239;29;20172;-78
2023/03/18 09:41:13;;;;;;;43.13;30.17;;;13.20;99.90;;;;;;4950710;28;20210;-76
2023/03/18 09:44:01;;;;;;;45.30;30.70;;;13.30;99.90;;;;;;4951262;28;20183;-74
2023/03/18 09:46:52;;;;;;;45.08;29.38;;;13.40;99.90;;;;;;4936790;29;20179;-73
2023/03/18 09:49:45;;;;;;;44.72;31.23;;;13.40;99.90;;;;;;4936747;29;20175;-73
2023/03/18 09:52:36;;;;;;;45.55;30.48;;;13.50;99.90;;;;;;4936548;29;20181;-73
2023/03/18 09:55:20;;;;;;;45.22;29.60;;;13.60;99.90;;;;;;4935909;29;20195;-73
2023/03/18 09:57:48;;;;;;;45.45;30.40;;;13.70;99.90;;;;;;4936557;29;20258;-73
2023/03/18 10:00:27;;;;;;;43.40;29.50;;;13.90;99.90;;;;;;4950759;28;20179;-73
2023/03/18 10:03:13;;;;;;;42.10;29.92;;;14.20;99.90;;;;;;4936210;29;20186;-72
2023/03/18 10:05:51;;;;;;;42.42;28.17;;;14.70;99.90;;;;;;4936326;29;20174;-74
2023/03/18 10:08:34;;;;;;;40.85;29.02;;;15.10;99.90;;;;;;4936145;29;20175;-74
2023/03/18 10:11:05;;;;;;;43.22;27.60;;;15.40;99.90;;;;;;4936220;29;20202;-75
2023/03/18 10:13:38;;;;;;;41.50;28.30;;;15.70;99.90;;;;;;4936058;29;20258;-73
2023/03/18 10:16:10;;;;;;;40.33;27.70;;;16.00;99.90;;;;;;4936582;29;20196;-73
2023/03/18 10:18:42;;;;;;;38.88;26.08;;;16.50;99.90;;;;;;4936894;29;20207;-75
2023/03/18 10:21:37;;;;;;;37.45;26.02;;;17.00;99.90;;;;;;4935080;29;20184;-74
2023/03/18 10:24:08;;;;;;;36.95;26.13;;;17.60;99.90;;;;;;4935690;29;20187;-74
2023/03/18 10:26:44;;;;;;;36.58;25.00;;;18.10;99.90;;;;;;4936079;29;20254;-81
2023/03/18 10:29:20;;;;;;;35.13;23.70;;;18.40;99.90;;;;;;4935794;29;20218;-76
2023/03/18 10:32:07;;;;;;;34.45;24.65;;;18.60;99.90;;;;;;4951491;28;20318;-74
2023/03/18 10:34:59;;;;;;;28.05;21.67;;;18.80;99.90;;;;;;4936300;29;20223;-74
2023/03/18 10:37:40;;;;;;;31.75;22.67;;;19.20;99.90;;;;;;4949652;28;20195;-74
2023/03/18 10:40:15;;;;;;;30.70;21.85;;;19.50;99.90;;;;;;4950534;28;20175;-77
2023/03/18 10:42:42;;;;;;;34.38;23.10;;;19.80;99.90;;;;;;4935839;29;20198;-75
2023/03/18 10:45:35;;;;;;;29.95;21.45;;;20.20;99.90;;;;;;4934308;29;20190;-74
2023/03/18 10:48:11;;;;;;;27.67;20.20;;;20.30;99.90;;;;;;4934235;29;20226;-73
2023/03/18 10:50:54;;;;;;;28.17;20.52;;;20.40;99.90;;;;;;4950441;29;20182;-74
2023/03/18 10:53:27;;;;;;;27.10;18.85;;;20.50;99.90;;;;;;4937319;29;20187;-73
2023/03/18 10:56:03;;;;;;;29.92;18.23;;;20.50;99.90;;;;;;4939776;29;20203;-73
2023/03/18 10:58:29;;;;;;;29.35;19.88;;;20.40;99.90;;;;;;4939551;29;20163;-73
2023/03/18 11:00:55;;;;;;;28.20;20.23;;;20.30;99.90;;;;;;4953941;28;20376;-75
2023/03/18 11:03:47;;;;;;;29.83;19.80;;;20.10;99.90;;;;;;4936675;29;20275;-76
2023/03/18 11:06:35;;;;;;;28.85;20.02;;;19.90;99.90;;;;;;4937771;29;20179;-74
2023/03/18 11:09:07;;;;;;;31.42;20.67;;;19.70;99.90;;;;;;4937842;29;20565;-76
2023/03/18 11:11:34;;;;;;;27.20;19.88;;;19.50;99.90;;;;;;4938785;29;20234;-74
2023/03/18 11:14:04;;;;;;;30.27;22.13;;;19.30;99.90;;;;;;4938234;29;20184;-76
2023/03/18 11:16:41;;;;;;;31.00;22.10;;;19.10;99.90;;;;;;4952625;29;20203;-75
2023/03/18 11:19:31;;;;;;;30.35;21.25;;;18.90;99.90;;;;;;4952315;29;20254;-75
2023/03/18 11:22:09;;;;;;;31.70;21.88;;;18.70;99.90;;;;;;4937972;29;20171;-75
2023/03/18 11:24:43;;;;;;;30.30;21.27;;;18.50;99.90;;;;;;4937438;29;20167;-77
2023/03/18 11:27:15;;;;;;;30.30;21.27;;;18.40;99.90;;;;;;4937468;29;20167;-75
2023/03/18 11:29:53;;;;;;;29.83;21.10;;;18.20;99.90;;;;;;4952514;28;20234;-73
2023/03/18 11:32:33;;;;;;;28.20;20.23;;;18.20;99.90;;;;;;4937940;29;20163;-75
2023/03/18 11:35:07;;;;;;;27.17;19.33;;;18.10;99.90;;;;;;4937086;29;20219;-75
2023/03/18 11:37:36;;;;;;;25.02;17.90;;;18.00;99.90;;;;;;4936592;29;20632;-74
2023/03/18 11:40:26;;;;;;;28.83;19.00;;;18.00;99.90;;;;;;4937810;29;20199;-74
2023/03/18 11:43:03;;;;;;;25.20;18.23;;;17.80;99.90;;;;;;4937276;29;20187;-74
2023/03/18 11:46:05;;;;;;;24.25;18.23;;;17.80;99.90;;;;;;4953056;29;20532;-74
2023/03/18 11:48:38;;;;;;;26.20;18.60;;;17.60;99.90;;;;;;4936617;29;20195;-74
2023/03/18 11:51:25;;;;;;;25.55;18.50;;;17.50;99.90;;;;;;4938085;29;20167;-76
2023/03/18 11:54:02;;;;;;;25.25;18.35;;;17.40;99.90;;;;;;4937378;29;20234;-75
2023/03/18 11:56:38;;;;;;;29.42;18.45;;;17.40;99.90;;;;;;4937737;29;20326;-73
2023/03/18 11:59:12;;;;;;;24.50;18.75;;;17.30;99.90;;;;;;4937611;29;20199;-75
2023/03/18 12:02:16;;;;;;;27.95;19.98;;;17.30;99.90;;;;;;4900838;29;1101201;-74
2023/03/18 12:05:04;;;;;;;27.90;19.85;;;17.20;99.90;;;;;;4938056;29;20238;-75
2023/03/18 12:07:51;;;;;;;31.48;20.38;;;17.10;99.90;;;;;;4953723;28;20182;-73
2023/03/18 12:10:47;;;;;;;28.15;20.33;;;17.10;99.90;;;;;;4952928;29;20183;-75
2023/03/18 12:13:47;;;;;;;36.67;21.45;;;17.10;99.90;;;;;;4937943;29;20206;-74
2023/03/18 12:16:50;;;;;;;29.55;19.00;;;17.20;99.90;;;;;;4953113;28;20623;-74
2023/03/18 12:19:40;;;;;;;28.10;18.52;;;17.40;99.90;;;;;;4938330;29;20167;-73
2023/03/18 12:22:33;;;;;;;27.15;17.17;;;17.50;99.90;;;;;;4938762;29;20187;-76
2023/03/18 12:25:17;;;;;;;22.23;15.73;;;17.70;99.90;;;;;;4937753;29;20250;-74
2023/03/18 12:27:55;;;;;;;21.80;15.63;;;17.90;99.90;;;;;;4953512;29;20209;-73
2023/03/18 12:30:44;;;;;;;24.42;15.77;;;17.90;99.90;;;;;;4937952;29;20604;-75
2023/03/18 12:33:22;;;;;;;23.83;15.45;;;18.00;99.90;;;;;;4938455;29;20247;-73
2023/03/18 12:36:07;;;;;;;24.15;16.90;;;17.90;99.90;;;;;;4938226;29;20213;-72
2023/03/18 12:38:41;;;;;;;24.95;17.33;;;17.90;99.90;;;;;;4938790;29;20263;-73
2023/03/18 12:41:50;;;;;;;25.77;18.33;;;17.80;99.90;;;;;;4937706;29;20164;-74
2023/03/18 12:44:18;;;;;;;26.77;18.02;;;17.70;99.90;;;;;;4938197;29;20195;-73